createdAt,value
2023-04-10T00:02:09.156Z,80.63
2023-04-10T00:04:32.904Z,80.69
2023-04-10T00:06:56.491Z,81.20
2023-04-10T00:09:20.145Z,81.11
2023-04-10T00:11:45.402Z,81.28
2023-04-10T00:14:09.067Z,79.79
2023-04-10T00:16:32.649Z,80.52
2023-04-10T00:18:56.316Z,79.51
2023-04-10T00:21:19.896Z,81.86
2023-04-10T00:23:43.524Z,81.26
2023-04-10T00:26:07.490Z,81.29
2023-04-10T00:28:32.465Z,80.37
2023-04-10T00:30:56.087Z,80.30
2023-04-10T00:33:19.668Z,80.30
2023-04-10T00:35:43.251Z,80.90
2023-04-10T00:38:07.081Z,80.59
2023-04-10T00:40:30.737Z,80.95
2023-04-10T00:42:54.514Z,80.78
2023-04-10T00:45:19.624Z,81.15
2023-04-10T00:47:43.304Z,80.42
2023-04-10T00:50:08.202Z,80.19
2023-04-10T00:52:32.056Z,80.42
2023-04-10T00:54:55.669Z,80.26
2023-04-10T00:57:19.440Z,81.94
2023-04-10T00:59:43.128Z,82.29
2023-04-10T01:02:08.362Z,81.00
2023-04-10T01:04:33.034Z,80.95
2023-04-10T01:07:01.261Z,81.79
2023-04-10T01:09:43.189Z,81.37
2023-04-10T01:12:19.505Z,80.02
2023-04-10T01:14:52.172Z,80.10
2023-04-10T01:17:24.152Z,81.49
2023-04-10T01:20:04.194Z,80.67
2023-04-10T01:22:30.727Z,80.63
2023-04-10T01:25:28.557Z,81.26
2023-04-10T01:28:08.743Z,81.98
2023-04-10T01:30:36.722Z,83.24
2023-04-10T01:33:02.003Z,81.61
2023-04-10T01:35:27.137Z,81.04
2023-04-10T01:37:54.681Z,80.69
2023-04-10T01:40:20.797Z,80.76
2023-04-10T01:42:50.565Z,81.38
2023-04-10T01:45:20.361Z,81.17
2023-04-10T01:47:48.719Z,81.49
2023-04-10T01:50:13.620Z,81.72
2023-04-10T01:52:37.577Z,80.92
2023-04-10T01:55:11.605Z,80.98
2023-04-10T01:57:42.170Z,80.22
2023-04-10T02:00:07.306Z,80.53
2023-04-10T02:02:38.588Z,80.00
2023-04-10T02:05:04.336Z,80.49
2023-04-10T02:07:38.306Z,79.97
2023-04-10T02:10:10.947Z,81.04
2023-04-10T02:12:42.499Z,80.53
2023-04-10T02:15:08.743Z,80.76
2023-04-10T02:17:34.847Z,81.36
2023-04-10T02:20:00.856Z,81.04
2023-04-10T02:22:27.100Z,81.12
2023-04-10T02:24:51.222Z,80.77
2023-04-10T02:27:14.775Z,80.26
2023-04-10T02:29:38.736Z,80.40
2023-04-10T02:32:03.977Z,79.98
2023-04-10T02:34:27.607Z,81.43
2023-04-10T02:36:51.242Z,81.65
2023-04-10T02:39:17.132Z,80.75
2023-04-10T02:41:47.568Z,80.36
2023-04-10T02:44:11.490Z,80.69
2023-04-10T02:46:35.067Z,80.02
2023-04-10T02:48:58.992Z,79.98
2023-04-10T02:51:22.718Z,80.11
2023-04-10T02:53:46.901Z,80.72
2023-04-10T02:56:21.679Z,81.28
2023-04-10T02:58:46.365Z,82.49
2023-04-10T03:01:10.927Z,80.81
2023-04-10T03:03:42.207Z,80.81
2023-04-10T03:06:08.050Z,80.38
2023-04-10T03:08:32.051Z,81.33
2023-04-10T03:10:55.650Z,80.83
2023-04-10T03:13:20.786Z,80.15
2023-04-10T03:15:44.570Z,79.86
2023-04-10T03:18:09.232Z,80.85
2023-04-10T03:20:33.540Z,80.93
2023-04-10T03:22:57.083Z,80.12
2023-04-10T03:25:23.370Z,80.31
2023-04-10T03:27:48.312Z,81.25
2023-04-10T03:30:13.912Z,80.59
2023-04-10T03:32:39.124Z,81.37
2023-04-10T03:35:03.996Z,81.30
2023-04-10T03:37:28.494Z,80.96
2023-04-10T03:39:52.058Z,81.79
2023-04-10T03:42:15.640Z,82.06
2023-04-10T03:44:39.466Z,80.88
2023-04-10T03:47:06.309Z,80.36
2023-04-10T03:49:29.989Z,81.22
2023-04-10T03:52:00.159Z,80.91
2023-04-10T03:54:25.099Z,80.69
2023-04-10T03:56:48.646Z,82.44
2023-04-10T03:59:12.265Z,83.55
2023-04-10T04:01:37.835Z,81.82
2023-04-10T04:04:07.591Z,81.12
2023-04-10T04:07:00.679Z,81.03
2023-04-10T04:09:31.136Z,81.14
2023-04-10T04:12:24.226Z,81.18
2023-04-10T04:15:14.004Z,82.15
2023-04-10T04:17:51.329Z,81.54
2023-04-10T04:20:37.803Z,80.33
2023-04-10T04:23:17.723Z,79.88
2023-04-10T04:25:59.783Z,81.49
2023-04-10T04:28:47.345Z,81.18
2023-04-10T04:31:11.213Z,81.64
2023-04-10T04:34:00.597Z,80.66
2023-04-10T04:36:45.672Z,80.61
2023-04-10T04:39:09.275Z,83.20
2023-04-10T04:42:01.404Z,82.20
2023-04-10T04:44:43.965Z,81.86
2023-04-10T04:47:39.815Z,82.21
2023-04-10T04:50:22.149Z,85.51
2023-04-10T04:52:47.178Z,84.30
2023-04-10T04:55:29.273Z,82.33
2023-04-10T04:57:57.484Z,82.65
2023-04-10T05:00:32.709Z,83.40
2023-04-10T05:03:03.535Z,86.67
2023-04-10T05:05:34.639Z,85.51
2023-04-10T05:08:22.734Z,84.21
2023-04-10T05:11:06.827Z,84.49
2023-04-10T05:14:09.094Z,85.81
2023-04-10T05:16:41.925Z,86.00
2023-04-10T05:19:19.600Z,87.05
2023-04-10T05:22:05.723Z,87.90
2023-04-10T05:24:50.503Z,90.07
2023-04-10T05:27:26.636Z,90.76
2023-04-10T05:30:22.189Z,90.72
2023-04-10T05:32:51.435Z,90.41
2023-04-10T05:35:36.870Z,91.89
2023-04-10T05:38:18.962Z,92.78
2023-04-10T05:40:54.161Z,92.57
2023-04-10T05:43:34.779Z,93.73
2023-04-10T05:46:08.397Z,93.45
2023-04-10T05:48:44.420Z,94.04
2023-04-10T05:51:33.512Z,94.40
2023-04-10T05:54:35.948Z,91.94
2023-04-10T05:57:17.346Z,91.74
2023-04-10T06:00:01.463Z,90.36
2023-04-10T06:02:37.721Z,89.98
2023-04-10T06:05:04.212Z,88.62
2023-04-10T06:07:30.324Z,89.43
2023-04-10T06:09:54.148Z,86.80
2023-04-10T06:12:20.069Z,86.64
2023-04-10T06:14:44.442Z,83.56
2023-04-10T06:17:08.728Z,80.23
2023-04-10T06:19:32.657Z,77.88
2023-04-10T06:21:56.258Z,76.95
2023-04-10T06:24:19.815Z,75.07
2023-04-10T06:26:43.966Z,73.75
2023-04-10T06:29:09.009Z,72.46
2023-04-10T06:31:35.173Z,73.04
2023-04-10T06:33:59.042Z,70.58
2023-04-10T06:36:23.386Z,69.60
2023-04-10T06:38:55.003Z,70.06
2023-04-10T06:41:19.970Z,69.85
2023-04-10T06:43:43.466Z,69.31
2023-04-10T06:46:08.792Z,68.56
2023-04-10T06:48:32.906Z,66.96
2023-04-10T06:50:56.578Z,66.22
2023-04-10T06:53:20.119Z,66.54
2023-04-10T06:55:43.803Z,66.33
2023-04-10T06:58:07.309Z,67.15
2023-04-10T07:00:31.771Z,66.76
2023-04-10T07:02:56.720Z,66.32
2023-04-10T07:05:20.534Z,64.56
2023-04-10T07:07:44.273Z,64.38
2023-04-10T07:10:09.712Z,62.24
2023-04-10T07:12:33.119Z,60.96
2023-04-10T07:14:56.695Z,62.38
2023-04-10T07:17:20.277Z,63.39
2023-04-10T07:19:45.308Z,61.75
2023-04-10T07:22:08.818Z,61.18
2023-04-10T07:24:32.882Z,61.01
2023-04-10T07:26:57.256Z,60.66
2023-04-10T07:29:21.534Z,61.75
2023-04-10T07:31:45.363Z,62.41
2023-04-10T07:34:09.195Z,63.49
2023-04-10T07:36:34.116Z,61.87
2023-04-10T07:38:57.771Z,60.97
2023-04-10T07:41:22.295Z,60.66
2023-04-10T07:43:46.080Z,59.27
2023-04-10T07:46:09.681Z,59.09
2023-04-10T07:48:33.304Z,61.25
2023-04-10T07:50:56.883Z,60.53
2023-04-10T07:53:21.928Z,58.59
2023-04-10T07:55:48.763Z,58.68
2023-04-10T07:58:12.511Z,60.84
2023-04-10T08:00:36.294Z,60.69
2023-04-10T08:03:00.096Z,57.77
2023-04-10T08:05:23.964Z,57.91
2023-04-10T08:07:47.748Z,57.50
2023-04-10T08:10:13.422Z,58.11
2023-04-10T08:12:38.384Z,58.63
2023-04-10T08:15:02.006Z,58.70
2023-04-10T08:17:25.608Z,57.52
2023-04-10T08:19:49.143Z,56.04
2023-04-10T08:22:12.758Z,55.63
2023-04-10T08:24:36.270Z,55.44
2023-04-10T08:27:02.246Z,56.60
2023-04-10T08:29:25.809Z,55.68
2023-04-10T08:31:49.770Z,56.08
2023-04-10T08:34:13.281Z,56.64
2023-04-10T08:36:36.942Z,55.47
2023-04-10T08:39:00.791Z,54.40
2023-04-10T08:41:24.480Z,53.70
2023-04-10T08:43:49.909Z,54.11
2023-04-10T08:46:14.413Z,53.42
2023-04-10T08:48:44.569Z,55.18
2023-04-10T08:51:15.561Z,53.52
2023-04-10T08:53:45.921Z,51.35
2023-04-10T08:56:13.800Z,50.70
2023-04-10T08:58:37.620Z,52.09
2023-04-10T09:01:03.314Z,50.34
2023-04-10T09:03:28.387Z,49.53
2023-04-10T09:05:51.994Z,50.19
2023-04-10T09:08:16.767Z,49.45
2023-04-10T09:10:40.394Z,46.92
2023-04-10T09:13:04.043Z,48.88
2023-04-10T09:15:27.636Z,50.74
2023-04-10T09:18:00.815Z,49.50
2023-04-10T09:20:26.851Z,45.97
2023-04-10T09:22:50.445Z,48.16
2023-04-10T09:25:32.428Z,47.17
2023-04-10T09:28:03.017Z,48.72
2023-04-10T09:30:36.838Z,46.99
2023-04-10T09:33:03.397Z,47.23
2023-04-10T09:35:38.062Z,47.08
2023-04-10T09:38:01.803Z,46.80
2023-04-10T09:40:27.069Z,48.67
2023-04-10T09:42:50.733Z,47.14
2023-04-10T09:45:14.307Z,46.36
2023-04-10T09:47:38.035Z,47.76
2023-04-10T09:50:03.174Z,46.58
2023-04-10T09:52:29.012Z,46.40
2023-04-10T09:54:52.664Z,44.53
2023-04-10T09:57:19.475Z,43.99
2023-04-10T09:59:46.416Z,46.11
2023-04-10T10:02:10.654Z,45.94
2023-04-10T10:04:36.148Z,45.38
2023-04-10T10:07:02.072Z,44.02
2023-04-10T10:09:27.139Z,46.23
2023-04-10T10:11:53.388Z,47.15
2023-04-10T10:14:20.260Z,45.82
2023-04-10T10:16:48.636Z,46.91
2023-04-10T10:19:20.584Z,46.98
2023-04-10T10:21:46.342Z,46.96
2023-04-10T10:24:13.378Z,46.26
2023-04-10T10:26:39.834Z,45.26
2023-04-10T10:29:06.693Z,44.99
2023-04-10T10:31:33.404Z,45.03
2023-04-10T10:33:57.362Z,44.78
2023-04-10T10:36:21.875Z,46.30
2023-04-10T10:38:55.861Z,48.11
2023-04-10T10:41:31.752Z,45.39
2023-04-10T10:44:03.370Z,44.58
2023-04-10T10:46:43.981Z,45.64
2023-04-10T10:49:07.591Z,43.34
2023-04-10T10:51:48.609Z,43.77
2023-04-10T10:54:31.337Z,46.00
2023-04-10T10:56:56.505Z,43.88
2023-04-10T10:59:20.007Z,43.86
2023-04-10T11:02:18.142Z,43.55
2023-04-10T11:04:46.382Z,45.49
2023-04-10T11:07:09.900Z,45.81
2023-04-10T11:09:51.967Z,45.60
2023-04-10T11:12:17.733Z,45.53
2023-04-10T11:14:42.530Z,44.65
2023-04-10T11:17:06.257Z,45.68
2023-04-10T11:19:29.880Z,45.99
2023-04-10T11:22:10.619Z,44.46
2023-04-10T11:25:00.345Z,43.76
2023-04-10T11:27:55.965Z,44.06
2023-04-10T11:30:41.215Z,43.17
2023-04-10T11:33:06.759Z,43.44
2023-04-10T11:35:32.512Z,44.96
2023-04-10T11:38:15.070Z,43.54
2023-04-10T11:40:54.695Z,42.16
2023-04-10T11:43:19.774Z,43.56
2023-04-10T11:45:43.312Z,43.70
2023-04-10T11:48:07.838Z,42.35
2023-04-10T11:50:36.048Z,43.96
2023-04-10T11:52:59.715Z,45.45
2023-04-10T11:55:39.249Z,44.87
2023-04-10T11:58:03.057Z,42.93
2023-04-10T12:00:27.982Z,41.24
2023-04-10T12:02:54.914Z,44.55
2023-04-10T12:05:18.938Z,41.60
2023-04-10T12:07:44.459Z,42.05
2023-04-10T12:10:10.451Z,44.21
2023-04-10T12:12:37.272Z,41.17
2023-04-10T12:15:00.883Z,41.20
2023-04-10T12:17:25.976Z,41.48
2023-04-10T12:19:50.343Z,41.38
2023-04-10T12:22:14.457Z,41.38
2023-04-10T12:24:46.421Z,45.39
2023-04-10T12:27:10.690Z,42.72
2023-04-10T12:29:34.284Z,42.08
2023-04-10T12:31:58.194Z,40.46
2023-04-10T12:34:23.127Z,41.49
2023-04-10T12:36:54.269Z,40.37
2023-04-10T12:39:25.606Z,40.74
2023-04-10T12:41:49.218Z,42.09
2023-04-10T12:44:14.917Z,43.23
2023-04-10T12:46:39.081Z,43.59
2023-04-10T12:49:12.489Z,42.51
2023-04-10T12:51:49.781Z,43.38
2023-04-10T12:54:13.767Z,41.59
2023-04-10T12:56:44.730Z,41.10
2023-04-10T12:59:08.526Z,40.18
2023-04-10T13:01:32.152Z,40.19
2023-04-10T13:03:55.788Z,39.23
2023-04-10T13:06:19.479Z,38.68
2023-04-10T13:08:44.422Z,38.91
2023-04-10T13:11:08.483Z,38.99
2023-04-10T13:13:32.885Z,39.28
2023-04-10T13:15:56.694Z,39.66
2023-04-10T13:18:20.271Z,40.76
2023-04-10T13:20:43.897Z,41.45
2023-04-10T13:23:07.639Z,40.09
2023-04-10T13:25:35.627Z,40.17
2023-04-10T13:27:59.290Z,40.34
2023-04-10T13:30:22.904Z,42.32
2023-04-10T13:32:46.507Z,40.97
2023-04-10T13:35:10.763Z,41.46
2023-04-10T13:37:34.423Z,42.00
2023-04-10T13:39:57.921Z,40.81
2023-04-10T13:42:22.887Z,41.04
2023-04-10T13:44:46.608Z,40.17
2023-04-10T13:47:10.405Z,40.74
2023-04-10T13:49:34.069Z,40.96
2023-04-10T13:51:58.489Z,41.14
2023-04-10T13:54:22.044Z,39.71
2023-04-10T13:56:46.504Z,41.95
2023-04-10T13:59:11.587Z,41.80
2023-04-10T14:01:35.240Z,41.36
2023-04-10T14:03:58.866Z,41.52
2023-04-10T14:06:22.538Z,39.87
2023-04-10T14:08:46.061Z,41.51
2023-04-10T14:11:09.693Z,40.85
2023-04-10T14:13:33.233Z,41.14
2023-04-10T14:15:58.244Z,40.78
2023-04-10T14:18:21.777Z,40.36
2023-04-10T14:20:45.470Z,42.53
2023-04-10T14:23:09.045Z,40.78
2023-04-10T14:25:32.677Z,40.97
2023-04-10T14:27:56.465Z,41.39
2023-04-10T14:30:20.211Z,40.28
2023-04-10T14:32:45.411Z,39.45
2023-04-10T14:35:10.203Z,39.54
2023-04-10T14:37:33.800Z,39.88
2023-04-10T14:39:57.499Z,40.98
2023-04-10T14:42:20.990Z,39.87
2023-04-10T14:44:44.951Z,40.19
2023-04-10T14:47:08.482Z,41.15
2023-04-10T14:49:33.525Z,40.75
2023-04-10T14:51:57.080Z,40.64
2023-04-10T14:54:23.623Z,41.40
2023-04-10T14:56:47.194Z,40.59
2023-04-10T14:59:11.640Z,40.55
2023-04-10T15:01:35.937Z,40.98
2023-04-10T15:03:59.698Z,40.46
2023-04-10T15:06:25.127Z,41.12
2023-04-10T15:08:48.922Z,41.25
2023-04-10T15:11:12.469Z,41.87
2023-04-10T15:13:36.098Z,41.16
2023-04-10T15:15:59.896Z,40.55
2023-04-10T15:18:25.505Z,41.32
2023-04-10T15:20:49.061Z,41.42
2023-04-10T15:23:14.016Z,41.36
2023-04-10T15:25:37.605Z,41.81
2023-04-10T15:28:02.093Z,42.39
2023-04-10T15:30:25.888Z,41.52
2023-04-10T15:32:49.503Z,42.70
2023-04-10T15:35:13.109Z,42.75
2023-04-10T15:37:37.559Z,44.29
2023-04-10T15:40:04.458Z,43.15
2023-04-10T15:42:28.116Z,43.87
2023-04-10T15:44:51.655Z,43.19
2023-04-10T15:47:15.416Z,43.77
2023-04-10T15:49:39.091Z,43.70
2023-04-10T15:52:02.753Z,43.11
2023-04-10T15:54:26.324Z,43.62
2023-04-10T15:56:51.312Z,44.18
2023-04-10T15:59:14.984Z,42.86
2023-04-10T16:01:38.610Z,42.83
2023-04-10T16:04:02.602Z,43.14
2023-04-10T16:06:26.981Z,42.16
2023-04-10T16:08:53.366Z,42.73
2023-04-10T16:11:16.968Z,42.90
2023-04-10T16:13:44.389Z,42.41
2023-04-10T16:16:09.315Z,42.37
2023-04-10T16:18:32.929Z,42.61
2023-04-10T16:20:56.555Z,42.80
2023-04-10T16:23:20.100Z,43.14
2023-04-10T16:25:43.756Z,42.83
2023-04-10T16:28:08.163Z,42.64
2023-04-10T16:30:33.287Z,42.36
2023-04-10T16:32:56.928Z,42.72
2023-04-10T16:35:22.375Z,42.03
2023-04-10T16:37:46.099Z,42.65
2023-04-10T16:40:12.497Z,42.52
2023-04-10T16:42:36.029Z,42.18
2023-04-10T16:45:02.132Z,42.69
2023-04-10T16:47:27.191Z,43.08
2023-04-10T16:49:50.854Z,42.61
2023-04-10T16:52:14.628Z,42.94
2023-04-10T16:54:38.620Z,42.15
2023-04-10T16:57:02.591Z,42.39
2023-04-10T16:59:26.309Z,43.53
2023-04-10T17:01:49.961Z,42.76
2023-04-10T17:04:16.745Z,42.80
2023-04-10T17:06:40.780Z,43.04
2023-04-10T17:09:04.424Z,43.47
2023-04-10T17:11:28.050Z,43.29
2023-04-10T17:13:51.713Z,43.19
2023-04-10T17:16:15.904Z,43.25
2023-04-10T17:18:39.500Z,43.53
2023-04-10T17:21:04.744Z,43.43
2023-04-10T17:23:28.402Z,43.67
2023-04-10T17:25:52.002Z,42.91
2023-04-10T17:28:16.871Z,43.43
2023-04-10T17:30:40.900Z,43.48
2023-04-10T17:33:04.844Z,43.89
2023-04-10T17:35:28.508Z,43.67
2023-04-10T17:37:53.894Z,43.91
2023-04-10T17:40:17.522Z,44.13
2023-04-10T17:42:41.138Z,44.09
2023-04-10T17:45:05.221Z,44.02
2023-04-10T17:47:28.905Z,44.37
2023-04-10T17:49:52.474Z,45.01
2023-04-10T17:52:16.088Z,44.49
2023-04-10T17:54:41.282Z,44.82
2023-04-10T17:57:06.475Z,44.82
2023-04-10T17:59:32.001Z,44.09
2023-04-10T18:01:55.639Z,44.75
2023-04-10T18:04:19.252Z,45.30
2023-04-10T18:06:42.944Z,44.58
2023-04-10T18:09:06.442Z,44.64
2023-04-10T18:11:31.428Z,44.38
2023-04-10T18:13:54.970Z,44.73
2023-04-10T18:16:18.728Z,44.74
2023-04-10T18:18:42.614Z,45.46
2023-04-10T18:21:08.086Z,45.00
2023-04-10T18:23:33.109Z,45.35
2023-04-10T18:25:57.628Z,44.84
2023-04-10T18:28:22.877Z,45.46
2023-04-10T18:30:46.461Z,44.94
2023-04-10T18:33:11.236Z,45.93
2023-04-10T18:35:35.271Z,45.38
2023-04-10T18:37:58.837Z,45.88
2023-04-10T18:40:24.040Z,45.96
2023-04-10T18:42:47.605Z,45.65
2023-04-10T18:45:14.108Z,45.73
2023-04-10T18:47:37.704Z,45.89
2023-04-10T18:50:01.372Z,45.98
2023-04-10T18:52:24.866Z,46.28
2023-04-10T18:54:48.504Z,46.57
2023-04-10T18:57:12.871Z,46.61
2023-04-10T18:59:38.944Z,46.18
2023-04-10T19:02:04.378Z,46.71
2023-04-10T19:04:28.232Z,46.39
2023-04-10T19:06:51.970Z,46.30
2023-04-10T19:09:15.985Z,46.93
2023-04-10T19:11:39.846Z,45.99
2023-04-10T19:14:03.496Z,46.01
2023-04-10T19:16:27.290Z,46.74
2023-04-10T19:18:54.739Z,46.92
2023-04-10T19:21:18.387Z,46.09
2023-04-10T19:23:42.238Z,45.33
2023-04-10T19:26:06.126Z,45.91
2023-04-10T19:28:30.565Z,45.89
2023-04-10T19:30:54.138Z,45.46
2023-04-10T19:33:18.183Z,45.28
2023-04-10T19:35:43.146Z,45.57
2023-04-10T19:38:06.795Z,45.38
2023-04-10T19:40:31.924Z,45.13
2023-04-10T19:42:55.990Z,44.48
2023-04-10T19:45:22.160Z,45.21
2023-04-10T19:47:45.885Z,44.32
2023-04-10T19:50:10.225Z,43.30
2023-04-10T19:52:35.335Z,44.75
2023-04-10T19:54:58.880Z,43.70
2023-04-10T19:57:22.504Z,42.93
2023-04-10T19:59:46.039Z,43.39
2023-04-10T20:02:10.427Z,43.55
2023-04-10T20:04:34.118Z,43.23
2023-04-10T20:06:57.890Z,43.31
2023-04-10T20:09:23.147Z,43.44
2023-04-10T20:11:46.731Z,43.28
2023-04-10T20:14:10.783Z,44.21
2023-04-10T20:16:34.744Z,43.62
2023-04-10T20:18:58.730Z,43.86
2023-04-10T20:21:22.838Z,43.79
2023-04-10T20:23:46.388Z,43.55
2023-04-10T20:26:12.894Z,43.95
2023-04-10T20:28:36.482Z,43.70
2023-04-10T20:31:00.067Z,43.76
2023-04-10T20:33:24.459Z,43.17
2023-04-10T20:35:48.148Z,44.45
2023-04-10T20:38:11.870Z,43.61
2023-04-10T20:40:35.946Z,43.90
2023-04-10T20:43:01.010Z,43.84
2023-04-10T20:45:24.718Z,43.64
2023-04-10T20:47:48.240Z,43.85
2023-04-10T20:50:13.119Z,44.15
2023-04-10T20:52:36.847Z,44.30
2023-04-10T20:55:00.456Z,45.26
2023-04-10T20:57:24.003Z,45.28
2023-04-10T20:59:48.972Z,44.03
2023-04-10T21:02:13.218Z,44.51
2023-04-10T21:04:36.917Z,44.19
2023-04-10T21:07:00.441Z,44.22
2023-04-10T21:09:24.012Z,45.33
2023-04-10T21:11:47.522Z,45.27
2023-04-10T21:14:11.208Z,44.43
2023-04-10T21:16:41.160Z,45.21
2023-04-10T21:19:04.869Z,44.57
2023-04-10T21:21:29.000Z,44.78
2023-04-10T21:23:52.618Z,44.81
2023-04-10T21:26:16.145Z,44.79
2023-04-10T21:28:39.733Z,46.14
2023-04-10T21:31:03.396Z,44.83
2023-04-10T21:33:28.447Z,44.30
2023-04-10T21:35:52.033Z,44.87
2023-04-10T21:38:15.863Z,44.16
2023-04-10T21:40:39.445Z,44.27
2023-04-10T21:43:03.306Z,44.77
2023-04-10T21:45:26.845Z,44.75
2023-04-10T21:47:50.453Z,45.03
2023-04-10T21:50:15.545Z,44.97
2023-04-10T21:52:39.131Z,45.52
2023-04-10T21:55:03.826Z,45.33
2023-04-10T21:57:28.662Z,46.13
2023-04-10T21:59:52.480Z,45.99
2023-04-10T22:02:16.208Z,45.48
2023-04-10T22:04:48.002Z,46.01
2023-04-10T22:07:19.226Z,45.82
2023-04-10T22:09:42.745Z,45.37
2023-04-10T22:12:07.584Z,46.45
2023-04-10T22:14:31.846Z,46.56
2023-04-10T22:16:56.663Z,45.72
2023-04-10T22:19:20.284Z,45.85
2023-04-10T22:21:43.916Z,46.50
2023-04-10T22:24:09.479Z,45.97
2023-04-10T22:26:33.813Z,46.45
2023-04-10T22:28:59.100Z,46.49
2023-04-10T22:31:22.805Z,46.65
2023-04-10T22:33:46.439Z,46.40
2023-04-10T22:36:11.074Z,46.91
2023-04-10T22:38:34.709Z,46.62
2023-04-10T22:40:59.652Z,47.97
2023-04-10T22:43:23.185Z,46.74
2023-04-10T22:45:46.776Z,46.63
2023-04-10T22:48:10.325Z,46.72
2023-04-10T22:50:33.919Z,47.56
2023-04-10T22:52:57.440Z,47.29
2023-04-10T22:55:21.198Z,47.78
2023-04-10T22:57:49.400Z,47.83
2023-04-10T23:00:14.565Z,47.43
2023-04-10T23:02:38.285Z,47.99
2023-04-10T23:05:02.874Z,48.52
2023-04-10T23:07:27.933Z,47.59
2023-04-10T23:09:51.624Z,48.65
2023-04-10T23:12:15.129Z,48.67
2023-04-10T23:14:40.133Z,48.79
2023-04-10T23:17:03.956Z,48.62
2023-04-10T23:19:27.564Z,48.65
2023-04-10T23:21:53.503Z,48.79
2023-04-10T23:24:17.100Z,48.32
2023-04-10T23:26:40.648Z,49.07
2023-04-10T23:29:04.378Z,48.89
2023-04-10T23:31:29.321Z,48.64
2023-04-10T23:33:52.957Z,49.16
2023-04-10T23:36:16.674Z,48.90
2023-04-10T23:38:40.304Z,48.95
2023-04-10T23:41:04.004Z,48.71
2023-04-10T23:43:27.654Z,49.85
2023-04-10T23:45:51.155Z,49.15
2023-04-10T23:48:16.275Z,49.49
2023-04-10T23:50:39.862Z,49.23
2023-04-10T23:53:04.043Z,49.33
2023-04-10T23:55:27.812Z,49.24
2023-04-10T23:57:51.371Z,49.49
